Aérodrome :
LOGIN :

S'inscrire | Disclaimer

   EN    FR    IT 

 










Légende :    VFR   VFR Marginal   IFR   IFR Intensif   IFR Très Intensif
Visi : 
Plafond : 
>= 8 km
>= 3000ft
5 à 8 km
1000 à 3000 ft
1500m à 5 km
500 à 1000 ft
800 à 1500m
200 à 500 ft
< 800m
< 200 ft
Symboles :   Orages  Brouillard  Fortes neiges  Fortes précipitations  Vent > 20 kt
SIGMETs :   Divers  Orages  Givrage  Turbulence  Onde Orograph.  Cendres Volcan.







- Altitude de l'aérodrome : 302 ft
- Code IATA : MAH


LEMH - Menorca

DERNIER METAR :
  • 221830Z 24006KT 210V270 9999 FEW026 23/20 Q1022

METARs EXPIRÉS :
  • 221800Z 23003KT 200V260 9999 FEW026 23/20 Q1022
  • 221730Z 21003KT 9999 FEW026 24/20 Q1022
  • 221700Z 20003KT 170V230 9999 FEW026 24/20 Q1022
  • 221630Z 22003KT 180V260 9999 FEW026 25/20 Q1022
  • 221600Z 21003KT 160V270 9999 FEW026 25/20 Q1022

TAF TAF LEMH
Valide du 22 à 15h jusqu'au 23 à 15h UTC


221400Z 2215/2315 22007KT 9999 FEW025 TX28/2312Z TN21/2305Z
BECMG 2223/2301 32007KT
BECMG 2306/2308 01010KT
BECMG 2310/2312 26012KT
Pas de NOTAMs connus pour ce terrain.



MET'MAP, la Météo Aéronautique d'un coup d'oeil ! - Copyright ORBIFLY Décembre 2007 - Disclaimer

ORBIFLY MET'MAP TEAM :

Programmation & Développement : Alexandra Zaïnal
Conception & Développement : Baudouin d'Aumeries
Co-Programmation & Développement : Marc-Olivier Méhu
Soutien technique & logistique : Manuel Goepfert

Contact : metmap@orbifly.com




SOURCES & CREDITS :

   NOAA